createdAt,value
2018-02-04T00:02:30.413Z,97665.45
2018-02-04T00:05:02.085Z,97676.48
2018-02-04T00:07:33.277Z,97673.53
2018-02-04T00:10:08.149Z,97680.66
2018-02-04T00:12:38.083Z,97678.41
2018-02-04T00:15:10.258Z,97678.56
2018-02-04T00:17:41.063Z,97679.83
2018-02-04T00:20:11.544Z,97683.72
2018-02-04T00:22:47.115Z,97685.63
2018-02-04T00:25:17.610Z,97683.59
2018-02-04T00:27:47.535Z,97678.70
2018-02-04T00:30:17.494Z,97679.73
2018-02-04T00:32:47.609Z,97683.93
2018-02-04T00:35:17.760Z,97677.28
2018-02-04T00:37:47.540Z,97683.72
2018-02-04T00:40:17.431Z,97688.23
2018-02-04T00:42:47.386Z,97696.99
2018-02-04T00:45:17.271Z,97693.43
2018-02-04T00:47:47.685Z,97700.16
2018-02-04T00:50:18.357Z,97695.05
2018-02-04T00:52:48.438Z,97701.09
2018-02-04T00:55:18.728Z,97694.58
2018-02-04T00:57:48.634Z,97698.50
2018-02-04T01:00:18.616Z,97703.50
2018-02-04T01:02:49.027Z,97710.61
2018-02-04T01:05:19.027Z,97709.73
2018-02-04T01:07:48.958Z,97708.92
2018-02-04T01:10:18.878Z,97709.23
2018-02-04T01:12:49.964Z,97713.59
2018-02-04T01:15:20.580Z,97717.38
2018-02-04T01:17:55.224Z,97716.45
2018-02-04T01:20:25.088Z,97710.41
2018-02-04T01:22:55.088Z,97718.66
2018-02-04T01:25:25.194Z,97722.71
2018-02-04T01:27:55.122Z,97720.28
2018-02-04T01:30:24.976Z,97723.55
2018-02-04T01:32:54.792Z,97729.34
2018-02-04T01:35:24.737Z,97728.47
2018-02-04T01:37:54.669Z,97724.48
2018-02-04T01:40:24.534Z,97730.08
2018-02-04T01:42:54.366Z,97732.33
2018-02-04T01:45:24.239Z,97730.58
2018-02-04T01:48:08.411Z,97727.38
2018-02-04T01:50:38.249Z,97733.17
2018-02-04T01:53:08.180Z,97732.00
2018-02-04T01:55:38.245Z,97732.67
2018-02-04T01:58:08.293Z,97741.56
2018-02-04T02:00:38.128Z,97733.61
2018-02-04T02:03:08.018Z,97733.39
2018-02-04T02:05:37.896Z,97736.03
2018-02-04T02:08:07.761Z,97736.54
2018-02-04T02:10:37.587Z,97751.41
2018-02-04T02:13:07.471Z,97748.89
2018-02-04T02:15:37.300Z,97750.44
2018-02-04T02:18:07.213Z,97750.75
2018-02-04T02:20:37.158Z,97756.86
2018-02-04T02:23:06.984Z,97760.42
2018-02-04T02:25:36.586Z,97760.22
2018-02-04T02:28:06.409Z,97765.21
2018-02-04T02:30:36.278Z,97769.09
2018-02-04T02:33:06.134Z,97775.14
2018-02-04T02:35:35.978Z,97773.39
2018-02-04T02:38:05.813Z,97775.23
2018-02-04T02:40:35.713Z,97768.09
2018-02-04T02:43:05.616Z,97765.67
2018-02-04T02:45:35.173Z,97778.59
2018-02-04T02:48:05.012Z,97783.72
2018-02-04T02:50:34.935Z,97782.27
2018-02-04T02:53:04.662Z,97787.25
2018-02-04T02:55:38.707Z,97783.57
2018-02-04T02:58:08.611Z,97784.08
2018-02-04T03:00:38.460Z,97782.16
2018-02-04T03:03:08.370Z,97784.01
2018-02-04T03:05:38.257Z,97782.47
2018-02-04T03:08:08.189Z,97784.39
2018-02-04T03:10:38.080Z,97796.80
2018-02-04T03:13:07.998Z,97793.78
2018-02-04T03:15:37.921Z,97798.91
2018-02-04T03:18:07.790Z,97800.38
2018-02-04T03:20:37.673Z,97804.16
2018-02-04T03:23:07.584Z,97814.88
2018-02-04T03:25:37.007Z,97829.23
2018-02-04T03:28:07.522Z,97835.01
2018-02-04T03:30:37.451Z,97837.08
2018-02-04T03:33:07.242Z,97838.92
2018-02-04T03:35:37.513Z,97843.86
2018-02-04T03:38:07.591Z,97844.16
2018-02-04T03:40:37.473Z,97842.36
2018-02-04T03:43:07.532Z,97837.72
2018-02-04T03:45:37.422Z,97847.38
2018-02-04T03:48:07.317Z,97853.50
2018-02-04T03:50:37.130Z,97853.68
2018-02-04T03:53:07.014Z,97853.64
2018-02-04T03:55:36.842Z,97862.19
2018-02-04T03:58:06.680Z,97872.78
2018-02-04T04:00:36.534Z,97870.00
2018-02-04T04:03:06.224Z,97877.80
2018-02-04T04:05:36.061Z,97876.39
2018-02-04T04:08:05.888Z,97883.83
2018-02-04T04:10:35.680Z,97889.89
2018-02-04T04:13:05.528Z,97886.62
2018-02-04T04:15:35.467Z,97893.83
2018-02-04T04:18:05.325Z,97889.52
2018-02-04T04:20:35.180Z,97891.92
2018-02-04T04:23:04.829Z,97893.86
2018-02-04T04:25:34.407Z,97869.02
2018-02-04T04:28:04.310Z,97896.27
2018-02-04T04:30:34.174Z,97895.91
2018-02-04T04:33:04.060Z,97892.56
2018-02-04T04:35:33.901Z,97891.84
2018-02-04T04:38:03.816Z,97899.53
2018-02-04T04:40:33.326Z,97901.72
2018-02-04T04:43:02.670Z,97903.10
2018-02-04T04:45:32.506Z,97903.95
2018-02-04T04:48:02.360Z,97905.45
2018-02-04T04:50:32.191Z,97907.17
2018-02-04T04:53:02.065Z,97906.75
2018-02-04T04:55:31.909Z,97910.64
2018-02-04T04:58:01.914Z,97917.66
2018-02-04T05:00:35.889Z,97915.20
2018-02-04T05:03:05.718Z,97916.00
2018-02-04T05:05:35.725Z,97924.55
2018-02-04T05:08:05.365Z,97933.29
2018-02-04T05:10:35.288Z,97928.07
2018-02-04T05:13:05.213Z,97930.42
2018-02-04T05:15:35.104Z,97939.33
2018-02-04T05:18:04.940Z,97940.76
2018-02-04T05:20:34.585Z,97949.84
2018-02-04T05:23:04.233Z,97947.44
2018-02-04T05:25:34.115Z,97954.04
2018-02-04T05:28:03.932Z,97959.73
2018-02-04T05:30:33.777Z,97956.44
2018-02-04T05:33:03.627Z,97966.47
2018-02-04T05:35:33.505Z,97971.58
2018-02-04T05:38:03.487Z,97971.11
2018-02-04T05:40:33.319Z,97983.61
2018-02-04T05:43:03.384Z,97986.42
2018-02-04T05:45:33.220Z,97990.59
2018-02-04T05:48:03.158Z,97996.19
2018-02-04T05:50:32.576Z,97998.60
2018-02-04T05:53:02.393Z,98004.33
2018-02-04T05:55:32.221Z,98005.85
2018-02-04T05:58:02.743Z,98012.76
2018-02-04T06:00:32.452Z,98017.81
2018-02-04T06:03:02.223Z,98020.75
2018-02-04T06:05:32.046Z,98021.61
2018-02-04T06:08:01.635Z,98031.60
2018-02-04T06:10:30.947Z,98032.76
2018-02-04T06:13:00.463Z,98043.38
2018-02-04T06:15:30.333Z,98036.27
2018-02-04T06:18:00.176Z,98049.70
2018-02-04T06:20:29.852Z,98057.78
2018-02-04T06:23:00.080Z,98059.89
2018-02-04T06:25:29.734Z,98056.58
2018-02-04T06:27:59.614Z,98066.68
2018-02-04T06:30:29.473Z,98072.37
2018-02-04T06:32:59.399Z,98070.06
2018-02-04T06:35:29.298Z,98077.08
2018-02-04T06:37:59.395Z,98081.72
2018-02-04T06:40:29.638Z,98091.82
2018-02-04T06:42:59.599Z,98093.61
2018-02-04T06:45:29.448Z,98095.43
2018-02-04T06:47:59.311Z,98107.64
2018-02-04T06:50:29.268Z,98104.05
2018-02-04T06:52:59.084Z,98106.92
2018-02-04T06:55:28.916Z,98114.62
2018-02-04T06:57:58.724Z,98113.91
2018-02-04T07:00:28.928Z,98115.70
2018-02-04T07:02:58.944Z,98114.90
2018-02-04T07:05:28.850Z,98121.25
2018-02-04T07:07:58.764Z,98121.41
2018-02-04T07:10:28.616Z,98121.59
2018-02-04T07:12:58.463Z,98140.00
2018-02-04T07:15:28.378Z,98139.57
2018-02-04T07:17:58.236Z,98144.47
2018-02-04T07:20:28.194Z,98146.10
2018-02-04T07:22:58.123Z,98152.05
2018-02-04T07:25:27.929Z,98152.27
2018-02-04T07:27:57.977Z,98156.57
2018-02-04T07:30:27.820Z,98158.77
2018-02-04T07:32:57.755Z,98156.20
2018-02-04T07:35:27.679Z,98169.46
2018-02-04T07:37:57.648Z,98173.00
2018-02-04T07:40:27.608Z,98175.56
2018-02-04T07:42:57.533Z,98181.01
2018-02-04T07:45:26.840Z,98181.73
2018-02-04T07:47:56.727Z,98184.49
2018-02-04T07:50:26.630Z,98187.44
2018-02-04T07:52:56.515Z,98182.84
2018-02-04T07:55:26.509Z,98194.39
2018-02-04T07:57:56.356Z,98198.91
2018-02-04T08:00:26.201Z,98208.09
2018-02-04T08:02:56.098Z,98208.44
2018-02-04T08:05:26.624Z,98208.61
2018-02-04T08:07:56.721Z,98216.64
2018-02-04T08:10:26.783Z,98215.86
2018-02-04T08:15:32.908Z,98221.73
2018-02-04T08:18:03.478Z,98226.67
2018-02-04T08:20:37.512Z,98223.21
2018-02-04T08:23:07.501Z,98232.21
2018-02-04T08:25:37.349Z,98228.29
2018-02-04T08:28:07.190Z,98241.09
2018-02-04T08:30:37.785Z,98241.43
2018-02-04T08:33:07.724Z,98241.66
2018-02-04T08:35:37.710Z,98238.39
2018-02-04T08:38:07.803Z,98238.73
2018-02-04T08:40:37.614Z,98235.45
2018-02-04T08:43:07.599Z,98242.45
2018-02-04T08:45:37.460Z,98246.82
2018-02-04T08:48:07.315Z,98242.97
2018-02-04T08:50:37.147Z,98241.42
2018-02-04T08:53:06.975Z,98248.25
2018-02-04T08:55:37.147Z,98247.28
2018-02-04T08:58:07.052Z,98247.69
2018-02-04T09:00:36.923Z,98253.18
2018-02-04T09:03:06.911Z,98252.12
2018-02-04T09:05:36.472Z,98257.08
2018-02-04T09:08:06.082Z,98254.44
2018-02-04T09:10:36.187Z,98262.13
2018-02-04T09:13:05.621Z,98266.49
2018-02-04T09:15:35.136Z,98263.31
2018-02-04T09:18:05.557Z,98268.95
2018-02-04T09:20:35.821Z,98273.42
2018-02-04T09:23:05.441Z,98265.97
2018-02-04T09:25:35.065Z,98284.06
2018-02-04T09:28:05.117Z,98279.18
2018-02-04T09:30:35.228Z,98278.78
2018-02-04T09:33:04.944Z,98283.91
2018-02-04T09:35:34.776Z,98289.08
2018-02-04T09:38:04.624Z,98282.36
2018-02-04T09:40:34.444Z,98281.13
2018-02-04T09:43:04.281Z,98279.02
2018-02-04T09:45:34.222Z,98287.80
2018-02-04T09:48:04.172Z,98288.61
2018-02-04T09:50:34.153Z,98297.36
2018-02-04T09:53:04.058Z,98293.65
2018-02-04T09:55:33.970Z,98288.31
2018-02-04T09:58:03.819Z,98298.53
2018-02-04T10:00:33.726Z,98305.48
2018-02-04T10:03:03.590Z,98303.88
2018-02-04T10:05:33.449Z,98304.80
2018-02-04T10:08:03.421Z,98307.73
2018-02-04T10:10:33.661Z,98306.74
2018-02-04T10:13:04.158Z,98315.44
2018-02-04T10:15:38.403Z,98316.15
2018-02-04T10:18:08.242Z,98319.56
2018-02-04T10:20:38.083Z,98332.16
2018-02-04T10:23:07.743Z,98328.27
2018-02-04T10:25:37.587Z,98333.27
2018-02-04T10:28:07.406Z,98339.45
2018-02-04T10:30:37.285Z,98337.97
2018-02-04T10:33:07.570Z,98341.42
2018-02-04T10:35:37.174Z,98336.19
2018-02-04T10:38:06.745Z,98341.87
2018-02-04T10:40:36.289Z,98335.66
2018-02-04T10:43:06.047Z,98341.34
2018-02-04T10:45:35.646Z,98334.66
2018-02-04T10:48:05.289Z,98337.62
2018-02-04T10:50:34.626Z,98340.98
2018-02-04T10:53:05.287Z,98340.63
2018-02-04T10:55:34.883Z,98349.64
2018-02-04T10:58:04.166Z,98340.78
2018-02-04T11:00:33.548Z,98341.91
2018-02-04T11:03:06.892Z,98343.72
2018-02-04T11:05:36.998Z,98345.39
2018-02-04T11:08:06.559Z,98341.41
2018-02-04T11:10:36.119Z,98348.63
2018-02-04T11:13:05.760Z,98349.56
2018-02-04T11:15:35.314Z,98351.58
2018-02-04T11:18:05.281Z,98349.36
2018-02-04T11:20:34.885Z,98352.66
2018-02-04T11:23:04.803Z,98354.81
2018-02-04T11:25:34.383Z,98358.53
2018-02-04T11:28:03.944Z,98367.58
2018-02-04T11:30:33.562Z,98364.51
2018-02-04T11:33:02.996Z,98359.38
2018-02-04T11:35:32.461Z,98369.65
2018-02-04T11:38:02.681Z,98363.45
2018-02-04T11:40:32.375Z,98367.38
2018-02-04T11:43:01.868Z,98363.33
2018-02-04T11:45:31.544Z,98357.58
2018-02-04T11:48:01.241Z,98361.91
2018-02-04T11:50:30.957Z,98365.53
2018-02-04T11:53:00.234Z,98366.94
2018-02-04T11:55:29.552Z,98364.77
2018-02-04T11:57:59.087Z,98368.41
2018-02-04T12:00:28.596Z,98367.52
2018-02-04T12:02:58.117Z,98369.41
2018-02-04T12:05:27.718Z,98370.48
2018-02-04T12:07:57.296Z,98367.52
2018-02-04T12:10:27.390Z,98367.22
2018-02-04T12:12:57.341Z,98363.41
2018-02-04T12:15:27.261Z,98364.77
2018-02-04T12:17:56.822Z,98370.73
2018-02-04T12:20:26.460Z,98372.17
2018-02-04T12:22:56.054Z,98368.15
2018-02-04T12:25:25.698Z,98372.94
2018-02-04T12:27:55.231Z,98369.14
2018-02-04T12:30:25.171Z,98372.94
2018-02-04T12:32:55.150Z,98365.59
2018-02-04T12:35:24.479Z,98364.57
2018-02-04T12:37:54.116Z,98365.53
2018-02-04T12:40:23.747Z,98373.64
2018-02-04T12:42:53.370Z,98375.72
2018-02-04T12:45:23.619Z,98376.60
2018-02-04T12:47:53.266Z,98376.11
2018-02-04T12:50:23.133Z,98375.24
2018-02-04T12:52:52.653Z,98379.06
2018-02-04T12:55:22.201Z,98379.67
2018-02-04T12:57:51.734Z,98377.86
2018-02-04T13:00:21.348Z,98385.17
2018-02-04T13:02:51.838Z,98382.63
2018-02-04T13:05:21.394Z,98377.91
2018-02-04T13:07:50.910Z,98377.72
2018-02-04T13:10:20.497Z,98385.05
2018-02-04T13:12:50.309Z,98394.03
2018-02-04T13:15:19.843Z,98395.77
2018-02-04T13:17:49.417Z,98403.21
2018-02-04T13:20:19.182Z,98400.91
2018-02-04T13:22:49.134Z,98402.22
2018-02-04T13:25:18.687Z,98396.62
2018-02-04T13:27:48.232Z,98412.06
2018-02-04T13:30:17.570Z,98415.42
2018-02-04T13:32:47.338Z,98417.33
2018-02-04T13:35:16.927Z,98424.80
2018-02-04T13:37:46.674Z,98428.06
2018-02-04T13:40:16.300Z,98426.25
2018-02-04T13:42:46.170Z,98433.31
2018-02-04T13:45:19.640Z,98432.72
2018-02-04T13:47:49.341Z,98449.52
2018-02-04T13:50:19.665Z,98449.66
2018-02-04T13:52:52.894Z,98456.53
2018-02-04T13:55:23.685Z,98465.49
2018-02-04T13:57:53.564Z,98467.41
2018-02-04T14:00:23.111Z,98465.27
2018-02-04T14:02:52.738Z,98463.09
2018-02-04T14:05:23.622Z,98473.67
2018-02-04T14:07:54.248Z,98469.69
2018-02-04T14:10:24.715Z,98472.48
2018-02-04T14:12:54.760Z,98468.15
2018-02-04T14:15:28.236Z,98465.13
2018-02-04T14:17:58.648Z,98468.48
2018-02-04T14:20:28.667Z,98472.11
2018-02-04T14:22:58.548Z,98477.98
2018-02-04T14:25:28.546Z,98487.33
2018-02-04T14:27:58.382Z,98498.43
2018-02-04T14:30:28.521Z,98503.34
2018-02-04T14:32:58.603Z,98504.75
2018-02-04T14:35:28.457Z,98500.17
2018-02-04T14:37:58.580Z,98503.34
2018-02-04T14:40:32.351Z,98501.52
2018-02-04T14:43:02.340Z,98510.59
2018-02-04T14:45:34.120Z,98514.30
2018-02-04T14:48:03.801Z,98519.30
2018-02-04T14:50:35.416Z,98519.69
2018-02-04T14:53:05.122Z,98517.86
2018-02-04T14:58:11.635Z,98519.09
2018-02-04T15:00:42.156Z,98523.16
2018-02-04T15:03:15.720Z,98529.87
2018-02-04T15:05:45.974Z,98524.85
2018-02-04T15:13:27.952Z,98536.63
2018-02-04T15:15:57.847Z,98538.62
2018-02-04T15:18:27.705Z,98540.88
2018-02-04T15:21:01.496Z,98539.92
2018-02-04T15:23:31.389Z,98535.59
2018-02-04T15:26:02.361Z,98538.03
2018-02-04T15:28:32.508Z,98539.57
2018-02-04T15:31:03.027Z,98537.41
2018-02-04T15:33:32.898Z,98542.52
2018-02-04T15:36:04.052Z,98547.86
2018-02-04T15:38:35.245Z,98556.27
2018-02-04T15:41:05.126Z,98555.80
2018-02-04T16:00:06.407Z,98570.14
2018-02-04T16:02:36.406Z,98575.77
2018-02-04T16:05:06.524Z,98580.38
2018-02-04T16:07:36.605Z,98580.73
2018-02-04T16:10:06.614Z,98582.92
2018-02-04T16:12:36.564Z,98588.45
2018-02-04T16:17:40.220Z,98591.11
2018-02-04T16:20:12.526Z,98587.05
2018-02-04T16:22:43.234Z,98586.47
2018-02-04T16:25:13.240Z,98588.85
2018-02-04T16:27:43.443Z,98599.78
2018-02-04T16:30:16.897Z,98601.34
2018-02-04T16:37:02.654Z,98612.52
2018-02-04T16:39:49.675Z,98622.14
2018-02-04T16:42:43.523Z,98622.60
2018-02-04T16:45:18.444Z,98625.67
2018-02-04T16:50:24.758Z,98635.17
2018-02-04T16:52:55.237Z,98633.62
2018-02-04T16:55:25.965Z,98632.39
2018-02-04T16:57:56.099Z,98633.05
2018-02-04T17:03:16.693Z,98646.70
2018-02-04T17:05:47.072Z,98648.05
2018-02-04T17:08:19.909Z,98659.28
2018-02-04T17:10:49.834Z,98659.15
2018-02-04T17:18:52.250Z,98669.94
2018-02-04T17:21:23.605Z,98665.86
2018-02-04T17:23:53.584Z,98678.86
2018-02-04T17:26:23.625Z,98682.45
2018-02-04T17:28:53.546Z,98686.08
2018-02-04T17:34:05.858Z,98689.62
2018-02-04T17:36:36.697Z,98694.05
2018-02-04T17:41:58.073Z,98702.17
2018-02-04T17:44:28.154Z,98707.59
2018-02-04T17:46:57.957Z,98709.48
2018-02-04T17:49:29.013Z,98716.61
2018-02-04T17:51:58.923Z,98722.92
2018-02-04T17:54:29.081Z,98728.47
2018-02-04T17:57:02.038Z,98724.52
2018-02-04T17:59:32.092Z,98730.12
2018-02-04T18:02:02.045Z,98720.51
2018-02-04T18:04:31.974Z,98727.39
2018-02-04T18:07:02.124Z,98730.39
2018-02-04T18:09:32.343Z,98730.64
2018-02-04T18:12:02.008Z,98732.38
2018-02-04T18:14:33.208Z,98736.80
2018-02-04T18:17:05.484Z,98737.57
2018-02-04T18:19:35.601Z,98738.91
2018-02-04T18:22:05.687Z,98741.14
2018-02-04T18:24:36.191Z,98745.10
2018-02-04T18:27:06.107Z,98745.44
2018-02-04T18:29:36.644Z,98749.74
2018-02-04T18:32:06.621Z,98746.13
2018-02-04T18:34:37.704Z,98742.02
2018-02-04T18:37:07.738Z,98744.47
2018-02-04T18:39:37.981Z,98744.89
2018-02-04T18:42:07.996Z,98755.29
2018-02-04T18:44:38.415Z,98758.16
2018-02-04T18:47:08.795Z,98760.91
2018-02-04T18:49:39.168Z,98758.77
2018-02-04T18:52:10.378Z,98755.29
2018-02-04T18:54:44.629Z,98761.73
2018-02-04T18:57:15.188Z,98760.64
2018-02-04T18:59:45.750Z,98768.89
2018-02-04T19:02:16.089Z,98764.53
2018-02-04T19:04:47.142Z,98767.75
2018-02-04T19:07:18.149Z,98762.22
2018-02-04T19:09:48.957Z,98766.43
2018-02-04T19:12:18.937Z,98764.11
2018-02-04T19:14:49.344Z,98771.19
2018-02-04T19:17:19.567Z,98765.24
2018-02-04T19:19:49.624Z,98768.97
2018-02-04T19:22:19.708Z,98774.64
2018-02-04T19:24:49.967Z,98770.41
2018-02-04T19:27:20.487Z,98766.30
2018-02-04T19:29:51.824Z,98769.38
2018-02-04T19:32:21.857Z,98768.19
2018-02-04T19:34:55.968Z,98772.95
2018-02-04T19:37:27.482Z,98772.98
2018-02-04T19:39:57.864Z,98774.95
2018-02-04T19:42:28.120Z,98776.58
2018-02-04T19:44:57.999Z,98774.27
2018-02-04T19:47:27.855Z,98775.39
2018-02-04T19:49:57.908Z,98781.50
2018-02-04T19:52:27.794Z,98787.84
2018-02-04T19:54:57.840Z,98787.47
2018-02-04T19:57:28.095Z,98789.56
2018-02-04T19:59:58.106Z,98793.09
2018-02-04T20:02:28.305Z,98793.53
2018-02-04T20:04:58.169Z,98799.27
2018-02-04T20:07:28.085Z,98799.41
2018-02-04T20:09:58.127Z,98806.23
2018-02-04T20:12:27.981Z,98807.44
2018-02-04T20:14:58.184Z,98808.31
2018-02-04T20:17:27.804Z,98811.70
2018-02-04T20:19:57.818Z,98809.38
2018-02-04T20:22:27.832Z,98811.80
2018-02-04T20:24:57.845Z,98807.07
2018-02-04T20:27:27.691Z,98807.47
2018-02-04T20:29:57.816Z,98816.03
2018-02-04T20:32:41.092Z,98815.83
2018-02-04T20:35:11.764Z,98820.84
2018-02-04T20:37:41.929Z,98827.98
2018-02-04T20:40:12.408Z,98829.52
2018-02-04T20:42:42.575Z,98828.73
2018-02-04T20:45:13.030Z,98833.08
2018-02-04T20:47:43.656Z,98839.86
2018-02-04T20:50:13.771Z,98839.42
2018-02-04T20:52:43.710Z,98844.98
2018-02-04T20:55:13.695Z,98840.06
2018-02-04T20:57:43.667Z,98848.08
2018-02-04T21:00:13.712Z,98854.20
2018-02-04T21:02:43.780Z,98848.48
2018-02-04T21:05:14.026Z,98855.77
2018-02-04T21:07:44.092Z,98858.33
2018-02-04T21:10:14.931Z,98859.23
2018-02-04T21:12:44.924Z,98863.25
2018-02-04T21:15:14.915Z,98860.33
2018-02-04T21:17:44.898Z,98865.64
2018-02-04T21:20:15.321Z,98869.08
2018-02-04T21:22:45.607Z,98878.45
2018-02-04T21:25:16.885Z,98877.73
2018-02-04T21:27:48.378Z,98888.47
2018-02-04T21:30:18.517Z,98886.61
2018-02-04T21:32:52.931Z,98885.12
2018-02-04T21:35:23.405Z,98886.83
2018-02-04T21:37:53.376Z,98889.42
2018-02-04T21:40:23.278Z,98886.55
2018-02-04T21:42:54.119Z,98889.63
2018-02-04T21:45:24.564Z,98888.94
2018-02-04T21:47:54.932Z,98889.91
2018-02-04T21:50:26.704Z,98895.94
2018-02-04T21:52:56.832Z,98902.62
2018-02-04T21:55:27.510Z,98898.70
2018-02-04T21:57:57.848Z,98898.33
2018-02-04T22:00:27.993Z,98903.94
2018-02-04T22:02:58.050Z,98907.92
2018-02-04T22:05:28.368Z,98910.87
2018-02-04T22:08:00.154Z,98910.94
2018-02-04T22:10:30.312Z,98923.30
2018-02-04T22:13:02.195Z,98922.12
2018-02-04T22:15:32.575Z,98923.95
2018-02-04T22:18:02.334Z,98915.51
2018-02-04T22:20:32.884Z,98920.91
2018-02-04T22:23:02.860Z,98926.42
2018-02-04T22:25:32.782Z,98929.23
2018-02-04T22:28:02.695Z,98938.03
2018-02-04T22:30:32.562Z,98936.30
2018-02-04T22:33:02.531Z,98935.88
2018-02-04T22:35:32.400Z,98940.10
2018-02-04T22:38:02.388Z,98948.76
2018-02-04T22:40:32.029Z,98946.61
2018-02-04T22:43:01.506Z,98945.05
2018-02-04T22:45:30.926Z,98944.20
2018-02-04T22:48:00.641Z,98947.91
2018-02-04T22:50:30.494Z,98947.53
2018-02-04T22:53:00.336Z,98950.92
2018-02-04T22:55:30.897Z,98946.70
2018-02-04T22:58:00.580Z,98949.95
2018-02-04T23:00:30.422Z,98946.28
2018-02-04T23:03:00.910Z,98949.08
2018-02-04T23:05:30.891Z,98956.56
2018-02-04T23:08:01.088Z,98948.21
2018-02-04T23:10:31.130Z,98949.12
2018-02-04T23:13:01.036Z,98946.83
2018-02-04T23:15:30.929Z,98950.54
2018-02-04T23:18:00.958Z,98958.65
2018-02-04T23:20:36.488Z,98962.42
2018-02-04T23:23:09.490Z,98970.34
2018-02-04T23:26:05.400Z,98967.91
2018-02-04T23:29:19.572Z,98967.55
2018-02-04T23:31:54.575Z,98966.42
2018-02-04T23:37:14.740Z,98972.24
2018-02-04T23:39:44.388Z,98970.00
2018-02-04T23:42:14.793Z,98973.72
2018-02-04T23:44:46.102Z,98973.57
2018-02-04T23:47:15.973Z,98973.92
2018-02-04T23:49:45.996Z,98971.34
2018-02-04T23:52:16.217Z,98975.70
2018-02-04T23:54:46.149Z,98976.14
2018-02-04T23:57:16.033Z,98978.27
2018-02-04T23:59:45.843Z,98981.53
